Time;durP1;ratioP1;P1;durP2;ratioP2;P2;SDS_P1;SDS_P2;PMS_P1;PMS_P2;Temp;Humidity;BMP_temperature;BMP_pressure;BME280_temperature;BME280_humidity;BME280_pressure;Samples;Min_cycle;Max_cycle;Signal;HPM_P1;HPM_P2
2021/12/05 00:19:37;;;;;;;4.15;1.35;;;5.00;99.90;;;;;;4954824;29;20264;-78
2021/12/05 00:22:16;;;;;;;4.13;1.83;;;5.00;99.90;;;;;;4954830;29;20622;-82
2021/12/05 00:24:46;;;;;;;9.45;1.90;;;5.00;99.90;;;;;;4955027;29;20640;-82
2021/12/05 00:27:19;;;;;;;5.10;1.48;;;5.10;99.90;;;;;;4954864;29;20217;-79
2021/12/05 00:30:03;;;;;;;6.78;1.48;;;5.00;99.90;;;;;;4954755;28;20262;-78
2021/12/05 00:32:46;;;;;;;4.63;1.17;;;5.00;99.90;;;;;;4937704;29;20284;-79
2021/12/05 01:02:01;;;;;;;11.43;1.40;;;4.70;99.90;;;;;;4954658;29;20170;-83
2021/12/05 01:04:50;;;;;;;12.90;1.83;;;4.80;99.90;;;;;;4954463;29;20594;-82
2021/12/05 01:07:30;;;;;;;5.35;1.63;;;4.90;99.90;;;;;;4954873;29;20186;-83
2021/12/05 01:15:19;;;;;;;2.58;1.00;;;5.10;99.90;;;;;;4954477;29;20188;-82
2021/12/05 01:18:08;;;;;;;9.20;1.27;;;5.10;99.90;;;;;;4953954;29;20206;-84
2021/12/05 01:20:38;;;;;;;9.02;2.47;;;5.20;99.90;;;;;;4954763;29;20202;-83
2021/12/05 01:23:17;;;;;;;2.22;1.17;;;5.20;99.90;;;;;;4955963;29;20190;-77
2021/12/05 01:25:55;;;;;;;4.60;1.58;;;5.30;99.90;;;;;;4971924;29;20150;-77
2021/12/05 01:33:42;;;;;;;2.88;1.25;;;5.50;99.90;;;;;;4954470;29;20167;-84
2021/12/05 01:50:01;;;;;;;9.00;1.75;;;5.40;99.90;;;;;;4958057;29;20214;-77
2021/12/05 02:43:23;;;;;;;2.42;1.27;;;5.80;99.90;;;;;;4958049;29;20182;-78
2021/12/05 02:45:49;;;;;;;6.88;1.40;;;6.00;99.90;;;;;;4957192;29;20538;-78
2021/12/05 02:48:16;;;;;;;1.95;1.30;;;6.00;99.90;;;;;;4957641;29;20167;-79
2021/12/05 02:50:43;;;;;;;4.47;0.93;;;5.70;99.90;;;;;;4958001;29;20163;-80
2021/12/05 02:54:01;;;;;;;4.82;1.45;;;5.70;99.90;;;;;;4959158;28;20984;-78
2021/12/05 02:55:59;;;;;;;2.72;1.20;;;5.70;99.90;;;;;;4954817;29;20194;-79
2021/12/05 02:58:37;;;;;;;1.15;1.00;;;5.70;99.90;;;;;;4959011;29;20206;-78
2021/12/05 03:01:14;;;;;;;2.05;0.82;;;5.80;99.90;;;;;;4958530;29;20170;-78
2021/12/05 03:03:39;;;;;;;5.10;0.75;;;5.90;99.90;;;;;;4959414;29;20178;-77
2021/12/05 03:06:19;;;;;;;6.28;1.38;;;5.80;99.90;;;;;;4941201;29;20190;-78
2021/12/05 03:08:50;;;;;;;1.92;0.95;;;5.90;99.90;;;;;;4957592;29;20261;-78
2021/12/05 03:11:17;;;;;;;0.75;0.52;;;5.90;99.90;;;;;;4956700;29;20218;-78
2021/12/05 03:13:43;;;;;;;3.50;0.70;;;5.90;99.90;;;;;;4957866;29;20170;-78
2021/12/05 03:16:14;;;;;;;1.67;1.10;;;5.90;99.90;;;;;;4957797;29;20246;-80
2021/12/05 03:18:41;;;;;;;2.13;0.77;;;5.90;99.90;;;;;;4956244;29;20202;-79
2021/12/05 03:21:08;;;;;;;2.05;0.98;;;5.80;99.90;;;;;;4938996;29;20258;-78
2021/12/05 03:23:38;;;;;;;4.57;0.80;;;5.90;99.90;;;;;;4955923;29;20190;-78
2021/12/05 03:26:10;;;;;;;1.55;0.85;;;6.00;99.90;;;;;;4956170;29;20195;-78
2021/12/05 03:28:35;;;;;;;2.65;0.98;;;6.10;99.90;;;;;;4955985;29;20171;-79
2021/12/05 03:31:02;;;;;;;1.90;0.85;;;6.00;99.90;;;;;;4956107;29;20169;-79
2021/12/05 03:33:28;;;;;;;3.42;1.23;;;5.90;99.90;;;;;;4938762;29;20274;-78
2021/12/05 03:35:54;;;;;;;3.90;0.82;;;5.80;99.90;;;;;;4956195;29;20618;-79
2021/12/05 03:38:19;;;;;;;2.10;1.10;;;5.80;99.90;;;;;;4938497;29;20214;-79
2021/12/05 03:40:45;;;;;;;0.98;0.90;;;5.80;99.90;;;;;;4955744;29;20645;-83
2021/12/05 03:43:14;;;;;;;3.60;1.13;;;5.70;99.90;;;;;;4955883;29;20209;-84
2021/12/05 03:45:43;;;;;;;1.10;1.00;;;5.70;99.90;;;;;;4955805;29;20186;-82
2021/12/05 03:48:12;;;;;;;1.20;0.98;;;5.60;99.90;;;;;;4955647;29;20174;-80
2021/12/05 03:50:37;;;;;;;1.35;0.80;;;5.50;99.90;;;;;;4954710;29;20253;-83
2021/12/05 03:53:04;;;;;;;2.50;1.15;;;5.40;99.90;;;;;;4956891;29;20269;-79
2021/12/05 03:55:31;;;;;;;2.88;1.88;;;5.30;99.90;;;;;;4966513;29;20167;-82
2021/12/05 03:57:57;;;;;;;1.38;1.23;;;5.30;99.90;;;;;;4957666;29;20202;-79
2021/12/05 04:00:33;;;;;;;1.50;1.00;;;5.40;99.90;;;;;;4956486;29;20170;-84
2021/12/05 04:03:02;;;;;;;2.35;1.20;;;5.40;99.90;;;;;;4956201;29;20173;-84
2021/12/05 04:05:31;;;;;;;2.45;2.13;;;5.60;99.90;;;;;;4956129;28;20576;-81
2021/12/05 04:07:57;;;;;;;1.67;1.35;;;5.60;99.90;;;;;;4956065;29;20178;-84
2021/12/05 04:10:26;;;;;;;3.22;1.40;;;5.70;99.90;;;;;;4939059;29;20700;-81
2021/12/05 04:12:52;;;;;;;1.98;1.60;;;5.70;99.90;;;;;;4954423;29;20170;-84
2021/12/05 04:15:18;;;;;;;4.90;1.88;;;5.70;99.90;;;;;;4956041;29;20166;-84
2021/12/05 04:17:43;;;;;;;2.03;1.33;;;5.80;99.90;;;;;;4955274;29;20206;-84
2021/12/05 04:20:12;;;;;;;5.00;2.35;;;5.90;99.90;;;;;;4956181;29;20182;-78
2021/12/05 04:22:39;;;;;;;2.03;1.42;;;5.90;99.90;;;;;;4955057;29;20651;-78
2021/12/05 04:25:09;;;;;;;2.67;1.73;;;6.00;99.90;;;;;;4965653;29;20214;-84
2021/12/05 04:27:36;;;;;;;2.30;1.42;;;6.00;99.90;;;;;;4955098;29;20199;-80
2021/12/05 04:30:02;;;;;;;5.20;1.73;;;6.00;99.90;;;;;;4938580;29;20615;-85
2021/12/05 04:32:28;;;;;;;5.22;1.77;;;6.00;99.90;;;;;;4955414;29;20167;-83
2021/12/05 04:34:54;;;;;;;2.95;1.48;;;5.90;99.90;;;;;;4955440;29;20171;-79
2021/12/05 04:37:19;;;;;;;7.90;2.13;;;5.90;99.90;;;;;;4955314;29;20659;-83
2021/12/05 04:39:45;;;;;;;1.85;1.73;;;5.70;99.90;;;;;;4955178;29;20170;-81
2021/12/05 04:42:11;;;;;;;4.45;2.22;;;5.80;99.90;;;;;;4955395;29;20237;-79
2021/12/05 04:44:36;;;;;;;3.40;2.13;;;5.70;99.90;;;;;;4937935;29;20166;-81
2021/12/05 04:47:05;;;;;;;2.08;1.88;;;5.80;99.90;;;;;;4954812;29;20202;-79
2021/12/05 04:49:31;;;;;;;2.80;2.33;;;5.80;99.90;;;;;;4955231;29;20181;-79
2021/12/05 04:51:57;;;;;;;3.20;2.63;;;5.70;99.90;;;;;;4955260;29;20521;-84
2021/12/05 04:54:23;;;;;;;3.85;2.33;;;5.70;99.90;;;;;;4955563;29;20175;-84
2021/12/05 04:56:49;;;;;;;2.55;2.35;;;5.70;99.90;;;;;;4954694;29;20186;-80
2021/12/05 04:59:17;;;;;;;5.53;2.42;;;5.70;99.90;;;;;;4954629;29;20234;-81
2021/12/05 05:01:47;;;;;;;3.28;2.80;;;5.80;99.90;;;;;;4960934;29;20173;-80
2021/12/05 05:04:24;;;;;;;3.55;2.72;;;5.70;99.90;;;;;;4956848;29;20664;-82
2021/12/05 05:06:50;;;;;;;3.55;3.25;;;5.70;99.90;;;;;;4958104;29;20198;-81
2021/12/05 05:09:15;;;;;;;3.13;2.83;;;5.60;99.90;;;;;;4956636;29;20178;-82
2021/12/05 05:11:42;;;;;;;3.63;3.33;;;5.70;99.90;;;;;;4958302;29;20607;-77
2021/12/05 05:14:09;;;;;;;4.55;3.03;;;5.80;99.90;;;;;;4958925;29;20261;-80
2021/12/05 05:16:35;;;;;;;4.25;3.35;;;5.80;99.90;;;;;;4959638;28;20201;-83
2021/12/05 05:19:02;;;;;;;2.92;2.72;;;5.80;99.90;;;;;;4962206;29;20202;-80
2021/12/05 05:40:12;;;;;;;3.33;2.42;;;5.90;99.90;;;;;;4968849;29;20721;-81
2021/12/05 05:45:50;;;;;;;6.25;2.05;;;5.90;99.90;;;;;;4969193;29;20180;-84
2021/12/05 05:48:33;;;;;;;5.07;2.28;;;5.90;99.90;;;;;;4979555;29;20175;-79
2021/12/05 05:51:00;;;;;;;3.92;2.50;;;5.90;99.90;;;;;;4980218;29;20178;-79
2021/12/05 05:53:25;;;;;;;2.90;2.28;;;6.00;99.90;;;;;;4981369;28;20170;-80
2021/12/05 05:55:53;;;;;;;2.15;1.95;;;6.10;99.90;;;;;;4981524;28;20186;-80
2021/12/05 05:58:23;;;;;;;4.13;2.40;;;6.00;99.90;;;;;;4969574;29;20226;-84
2021/12/05 06:00:58;;;;;;;4.65;2.15;;;5.90;99.90;;;;;;4957853;29;20171;-78
2021/12/05 06:03:24;;;;;;;2.38;2.17;;;6.20;99.90;;;;;;4958163;29;20169;-78
2021/12/05 06:05:55;;;;;;;3.15;2.63;;;6.20;99.90;;;;;;4958729;29;20541;-83
2021/12/05 06:08:24;;;;;;;5.22;2.03;;;6.20;99.90;;;;;;4959801;29;20222;-78
2021/12/05 06:10:51;;;;;;;5.68;2.10;;;6.00;99.90;;;;;;4961029;29;20178;-78
2021/12/05 06:13:18;;;;;;;2.65;2.08;;;6.00;99.90;;;;;;4959042;29;20231;-78
2021/12/05 06:15:49;;;;;;;2.75;1.85;;;5.90;99.90;;;;;;4959940;29;20170;-77
2021/12/05 06:18:15;;;;;;;4.05;2.40;;;5.90;99.90;;;;;;4959489;29;20250;-77
2021/12/05 06:20:41;;;;;;;4.93;1.95;;;6.00;99.90;;;;;;4959562;29;20170;-79
2021/12/05 06:23:08;;;;;;;3.63;2.25;;;6.10;99.90;;;;;;4966408;29;20219;-79
2021/12/05 06:25:37;;;;;;;3.15;1.83;;;6.20;99.90;;;;;;4973723;29;20175;-78
2021/12/05 06:28:12;;;;;;;2.60;2.20;;;6.30;99.90;;;;;;4965662;28;20660;-77
2021/12/05 06:41:55;;;;;;;4.45;2.15;;;6.40;99.90;;;;;;4957655;29;20261;-78
2021/12/05 06:47:09;;;;;;;5.03;2.47;;;6.40;99.90;;;;;;4956973;29;20311;-78
2021/12/05 06:49:35;;;;;;;5.35;2.25;;;6.20;99.90;;;;;;4956599;29;20166;-82
2021/12/05 06:52:00;;;;;;;7.05;2.50;;;6.20;99.90;;;;;;4939074;29;20193;-78
2021/12/05 06:54:26;;;;;;;3.88;2.53;;;6.20;99.90;;;;;;4956937;29;20651;-78
2021/12/05 06:56:52;;;;;;;3.72;2.67;;;6.00;99.90;;;;;;4956273;29;20187;-78
2021/12/05 06:59:18;;;;;;;3.70;2.67;;;6.00;99.90;;;;;;4956953;29;20214;-79
2021/12/05 07:01:43;;;;;;;3.25;2.72;;;6.10;99.90;;;;;;4956473;29;20178;-77
2021/12/05 07:04:27;;;;;;;3.00;2.70;;;6.20;99.90;;;;;;4956630;29;20637;-78
2021/12/05 07:06:53;;;;;;;3.10;2.80;;;6.20;99.90;;;;;;4956035;29;20727;-78
2021/12/05 07:09:19;;;;;;;3.83;3.47;;;6.30;99.90;;;;;;4956300;29;20274;-84
2021/12/05 07:19:56;;;;;;;3.05;2.80;;;6.50;99.90;;;;;;4955621;29;20289;-77
2021/12/05 07:22:27;;;;;;;3.75;2.55;;;6.30;99.90;;;;;;4938731;29;20273;-78
2021/12/05 07:25:06;;;;;;;4.22;2.92;;;6.30;99.90;;;;;;4956211;29;20659;-77
2021/12/05 07:43:51;;;;;;;4.45;2.47;;;6.10;99.90;;;;;;4955342;29;20178;-78
2021/12/05 07:46:17;;;;;;;5.00;2.72;;;6.10;99.90;;;;;;4954744;29;20273;-77
2021/12/05 07:48:45;;;;;;;3.28;2.55;;;6.20;99.90;;;;;;4955115;29;20536;-77
2021/12/05 07:54:04;;;;;;;3.05;2.67;;;6.20;99.90;;;;;;4955971;29;20237;-77
2021/12/05 07:56:51;;;;;;;4.20;2.75;;;6.10;99.90;;;;;;4955267;29;20186;-82
2021/12/05 08:16:06;;;;;;;5.80;3.97;;;6.20;99.90;;;;;;4954866;29;20256;-80
2021/12/05 08:18:28;;;;;;;7.65;4.15;;;6.10;99.90;;;;;;4954520;29;20245;-78
2021/12/05 08:20:54;;;;;;;4.15;3.85;;;6.20;99.90;;;;;;4955024;29;20278;-79
2021/12/05 08:23:23;;;;;;;4.15;3.45;;;6.10;99.90;;;;;;4953140;29;20209;-78
2021/12/05 08:26:04;;;;;;;3.75;3.45;;;6.20;99.90;;;;;;4954629;29;20237;-79
2021/12/05 09:38:56;;;;;;;4.60;3.20;;;6.90;99.90;;;;;;4955018;29;20257;-85
2021/12/05 10:06:54;;;;;;;4.40;3.63;;;7.60;99.90;;;;;;4960431;28;20217;-77
2021/12/05 10:38:26;;;;;;;4.78;4.00;;;7.70;99.90;;;;;;4935975;29;20637;-85
2021/12/05 10:41:06;;;;;;;5.00;4.45;;;7.70;99.90;;;;;;4956375;28;20745;-78
2021/12/05 10:43:33;;;;;;;5.13;4.72;;;7.80;99.90;;;;;;4974341;28;20201;-78
2021/12/05 10:46:11;;;;;;;6.50;5.55;;;7.80;99.90;;;;;;4975023;28;20194;-79
2021/12/05 10:48:40;;;;;;;5.75;5.15;;;7.90;99.90;;;;;;4975988;28;20161;-78
2021/12/05 10:51:15;;;;;;;5.95;4.70;;;8.20;99.90;;;;;;4975947;28;20177;-77
2021/12/05 10:54:05;;;;;;;5.22;4.18;;;8.20;99.90;;;;;;4975731;28;20192;-78
2021/12/05 10:56:34;;;;;;;6.47;4.43;;;8.10;99.90;;;;;;4975477;28;20181;-78
2021/12/05 10:59:09;;;;;;;5.10;4.60;;;8.10;99.90;;;;;;4975076;28;20205;-78
2021/12/05 11:01:48;;;;;;;4.80;4.18;;;8.10;99.90;;;;;;4975402;28;20245;-77
2021/12/05 11:04:33;;;;;;;8.32;4.78;;;8.20;99.90;;;;;;4975364;28;20261;-78
2021/12/05 11:07:03;;;;;;;5.15;3.92;;;8.10;99.90;;;;;;4958000;28;20185;-79
2021/12/05 11:09:45;;;;;;;5.13;4.60;;;8.20;99.90;;;;;;4977407;28;20166;-78
2021/12/05 11:12:21;;;;;;;4.00;3.70;;;8.10;99.90;;;;;;4982176;28;20193;-76
2021/12/05 11:15:03;;;;;;;5.70;4.00;;;8.20;99.90;;;;;;4974191;28;20178;-76
2021/12/05 11:17:32;;;;;;;5.90;3.88;;;8.40;99.90;;;;;;4975191;28;20193;-76
2021/12/05 11:20:08;;;;;;;5.65;5.15;;;8.40;99.90;;;;;;4975201;28;20295;-77
2021/12/05 11:22:38;;;;;;;6.65;3.97;;;8.60;99.90;;;;;;4974894;28;20181;-77
2021/12/05 11:25:06;;;;;;;4.07;3.78;;;8.70;99.90;;;;;;4975105;28;20198;-76
2021/12/05 11:27:37;;;;;;;4.07;3.67;;;8.60;99.90;;;;;;4960141;28;20201;-76
2021/12/05 11:30:26;;;;;;;5.47;3.75;;;8.60;99.90;;;;;;4975083;28;20170;-76
2021/12/05 11:33:01;;;;;;;3.92;3.53;;;8.30;99.90;;;;;;4957497;28;20178;-77
2021/12/05 11:35:38;;;;;;;11.40;4.07;;;8.30;99.90;;;;;;4976053;28;20248;-77
2021/12/05 11:38:09;;;;;;;5.28;4.78;;;8.10;99.90;;;;;;4958008;28;20220;-77
2021/12/05 11:40:46;;;;;;;3.95;3.53;;;8.30;99.90;;;;;;4974779;28;20162;-77
2021/12/05 11:43:19;;;;;;;4.35;4.00;;;8.30;99.90;;;;;;4974917;28;20213;-77
2021/12/05 11:46:07;;;;;;;4.20;3.90;;;8.30;99.90;;;;;;4974536;28;20170;-77
2021/12/05 11:48:54;;;;;;;4.60;4.13;;;8.50;99.90;;;;;;4974445;28;20265;-77
2021/12/05 11:51:33;;;;;;;5.47;3.85;;;8.50;99.90;;;;;;4974383;28;20178;-77
2021/12/05 11:54:09;;;;;;;4.95;4.18;;;8.60;99.90;;;;;;4974370;28;20200;-77
2021/12/05 11:56:35;;;;;;;4.88;3.92;;;8.60;99.90;;;;;;4974352;28;20283;-77
2021/12/05 11:59:08;;;;;;;4.70;4.20;;;8.50;99.90;;;;;;4974158;28;20288;-79
2021/12/05 12:01:56;;;;;;;4.95;4.38;;;8.50;99.90;;;;;;4974326;28;20253;-77
2021/12/05 12:04:25;;;;;;;3.40;3.17;;;8.60;99.90;;;;;;4956915;28;20182;-77
2021/12/05 12:07:15;;;;;;;4.47;4.03;;;8.60;99.90;;;;;;4974326;28;20189;-78
2021/12/05 12:09:41;;;;;;;8.52;4.22;;;8.70;99.90;;;;;;4974054;28;20170;-77
2021/12/05 12:12:08;;;;;;;4.97;4.40;;;8.50;99.90;;;;;;4974125;28;20185;-78
2021/12/05 12:14:34;;;;;;;8.05;4.10;;;8.40;99.90;;;;;;4974083;28;20176;-77
2021/12/05 12:17:02;;;;;;;3.80;3.50;;;8.50;99.90;;;;;;4973713;28;20185;-77
2021/12/05 12:19:28;;;;;;;4.45;4.05;;;8.60;99.90;;;;;;4956324;28;20413;-77
2021/12/05 12:21:57;;;;;;;4.03;3.70;;;8.50;99.90;;;;;;4972836;28;20699;-78
2021/12/05 12:24:24;;;;;;;6.47;5.88;;;8.20;99.90;;;;;;4973692;28;20192;-77
2021/12/05 12:26:51;;;;;;;5.10;4.57;;;8.40;99.90;;;;;;4973809;28;20189;-78
2021/12/05 12:29:18;;;;;;;6.15;3.88;;;8.80;99.90;;;;;;4973804;28;20196;-78
2021/12/05 12:31:47;;;;;;;9.38;4.63;;;8.90;99.90;;;;;;4973613;28;20162;-78
2021/12/05 12:34:17;;;;;;;7.05;4.13;;;8.90;99.90;;;;;;4973967;28;20237;-78
2021/12/05 12:36:50;;;;;;;6.65;3.63;;;8.90;99.90;;;;;;4973726;28;20189;-78
2021/12/05 12:39:15;;;;;;;5.70;5.20;;;8.90;99.90;;;;;;4956117;28;20240;-81
2021/12/05 12:41:42;;;;;;;4.13;3.80;;;8.90;99.90;;;;;;4956272;28;20209;-78
2021/12/05 12:44:08;;;;;;;8.60;3.88;;;8.80;99.90;;;;;;4973635;28;20205;-78
2021/12/05 12:46:48;;;;;;;5.60;4.43;;;8.80;99.90;;;;;;4973419;28;20270;-78
2021/12/05 12:49:14;;;;;;;4.00;3.45;;;9.10;99.90;;;;;;4973466;28;20228;-77
2021/12/05 12:52:18;;;;;;;4.65;4.25;;;9.20;99.90;;;;;;4973116;28;20186;-77
2021/12/05 12:54:52;;;;;;;4.70;3.65;;;9.20;99.90;;;;;;4954571;28;20185;-78
2021/12/05 12:57:26;;;;;;;5.35;3.92;;;9.20;99.90;;;;;;4956115;28;20189;-78
2021/12/05 12:59:59;;;;;;;3.83;3.53;;;9.00;99.90;;;;;;4973675;28;20201;-78
2021/12/05 13:05:55;;;;;;;4.95;3.58;;;8.80;99.90;;;;;;4973509;28;20201;-78
2021/12/05 13:11:21;;;;;;;4.30;3.90;;;8.90;99.90;;;;;;4973962;28;20543;-78
2021/12/05 13:14:00;;;;;;;5.03;3.72;;;9.20;99.90;;;;;;4973539;28;20170;-78
2021/12/05 13:16:31;;;;;;;5.70;4.18;;;9.00;99.90;;;;;;4973382;28;20671;-78
2021/12/05 13:19:06;;;;;;;4.18;3.70;;;8.80;99.90;;;;;;4973290;28;20353;-77
2021/12/05 13:21:38;;;;;;;8.15;4.25;;;8.80;99.90;;;;;;4973396;28;20220;-78
2021/12/05 13:24:25;;;;;;;4.95;4.55;;;8.80;99.90;;;;;;4973136;28;20740;-78
2021/12/05 13:26:54;;;;;;;8.35;7.07;;;8.90;99.90;;;;;;4973192;28;20264;-78
2021/12/05 13:29:26;;;;;;;6.45;5.32;;;8.80;99.90;;;;;;4973524;28;20224;-78
2021/12/05 13:31:53;;;;;;;6.88;5.00;;;8.80;99.90;;;;;;4973242;28;20257;-79
2021/12/05 13:34:30;;;;;;;7.13;5.97;;;8.90;99.90;;;;;;4975319;28;20174;-79
2021/12/05 13:37:04;;;;;;;6.13;4.65;;;8.80;99.90;;;;;;4975206;28;20189;-79
2021/12/05 13:40:07;;;;;;;4.38;4.00;;;8.80;99.90;;;;;;4960598;28;20747;-78
2021/12/05 13:42:36;;;;;;;5.35;4.60;;;8.60;99.90;;;;;;4978466;28;20513;-80
2021/12/05 13:45:27;;;;;;;4.32;3.92;;;8.70;99.90;;;;;;4976972;28;20170;-78
2021/12/05 13:47:52;;;;;;;7.72;4.65;;;8.60;99.90;;;;;;4976786;28;20201;-76
2021/12/05 13:53:02;;;;;;;4.95;4.55;;;8.60;99.90;;;;;;4976379;28;20546;-80
2021/12/05 13:55:53;;;;;;;4.65;4.25;;;8.80;99.90;;;;;;4976731;28;20166;-77
2021/12/05 13:58:35;;;;;;;5.35;4.82;;;9.10;99.90;;;;;;4976888;28;20208;-77
2021/12/05 14:01:23;;;;;;;8.02;4.18;;;9.30;99.90;;;;;;4976755;28;20170;-78
2021/12/05 14:03:59;;;;;;;3.90;3.50;;;9.20;99.90;;;;;;4976082;28;20174;-78
2021/12/05 14:06:39;;;;;;;4.65;3.97;;;9.00;99.90;;;;;;4976162;28;20656;-78
2021/12/05 14:09:14;;;;;;;3.97;3.67;;;8.90;99.90;;;;;;4976761;28;20166;-78
2021/12/05 14:11:56;;;;;;;3.60;3.30;;;8.90;99.90;;;;;;4959073;28;20177;-78
2021/12/05 14:14:35;;;;;;;3.40;3.10;;;8.80;99.90;;;;;;4958950;28;20166;-78
2021/12/05 14:17:04;;;;;;;4.05;3.70;;;8.90;99.90;;;;;;4976426;28;20197;-77
2021/12/05 14:19:32;;;;;;;4.38;3.80;;;8.70;99.90;;;;;;4975853;28;20241;-77
2021/12/05 14:22:00;;;;;;;7.65;4.55;;;9.10;99.90;;;;;;4975753;28;20555;-78
2021/12/05 14:24:31;;;;;;;4.32;3.92;;;9.20;99.90;;;;;;4981072;28;20244;-78
2021/12/05 14:27:04;;;;;;;6.70;4.78;;;9.00;99.90;;;;;;4984960;28;20189;-77
2021/12/05 14:29:33;;;;;;;5.05;4.47;;;9.00;99.90;;;;;;4976230;28;20168;-78
2021/12/05 14:32:25;;;;;;;6.97;5.28;;;9.20;99.90;;;;;;4976127;28;20174;-78
2021/12/05 14:34:53;;;;;;;4.30;4.00;;;9.30;99.90;;;;;;4971602;28;20593;-77
2021/12/05 14:37:22;;;;;;;5.68;5.05;;;9.30;99.90;;;;;;4975658;28;20297;-78
2021/12/05 14:39:50;;;;;;;7.82;5.75;;;9.00;99.90;;;;;;4976011;28;20210;-78
2021/12/05 14:42:19;;;;;;;6.45;5.80;;;8.80;99.90;;;;;;4976247;28;20173;-77
2021/12/05 14:44:50;;;;;;;7.15;4.57;;;8.90;99.90;;;;;;4975687;28;20174;-77
2021/12/05 14:47:22;;;;;;;4.40;3.20;;;8.90;99.90;;;;;;4975574;28;20186;-77
2021/12/05 14:50:01;;;;;;;4.72;3.90;;;9.00;99.90;;;;;;4958184;28;20224;-78
2021/12/05 14:52:29;;;;;;;4.85;4.30;;;8.80;99.90;;;;;;4975688;28;20659;-78
2021/12/05 14:54:56;;;;;;;4.72;4.07;;;9.00;99.90;;;;;;4976105;28;20184;-77
2021/12/05 14:57:25;;;;;;;4.90;4.50;;;9.10;99.90;;;;;;4977867;28;20192;-77
2021/12/05 14:59:58;;;;;;;5.80;4.40;;;9.10;99.90;;;;;;4977511;28;20239;-78
2021/12/05 15:02:24;;;;;;;5.22;4.65;;;9.10;99.90;;;;;;4978642;28;20166;-78
2021/12/05 15:04:52;;;;;;;4.70;4.28;;;9.00;99.90;;;;;;4979379;28;20268;-77
2021/12/05 15:07:20;;;;;;;5.03;4.63;;;8.70;99.90;;;;;;4978900;28;20265;-78
2021/12/05 15:09:49;;;;;;;8.50;5.88;;;8.70;99.90;;;;;;4978456;28;20182;-78
2021/12/05 15:12:20;;;;;;;9.98;6.07;;;8.70;99.90;;;;;;4978717;28;20166;-77
2021/12/05 15:14:48;;;;;;;5.68;5.18;;;8.50;99.90;;;;;;4983773;28;20223;-76
2021/12/05 15:17:20;;;;;;;5.50;4.97;;;8.60;99.90;;;;;;4994666;28;20205;-79
2021/12/05 15:19:51;;;;;;;5.82;5.32;;;8.60;99.90;;;;;;4994588;28;20205;-78
2021/12/05 15:22:18;;;;;;;13.82;5.78;;;8.60;99.90;;;;;;4991188;28;20166;-78
2021/12/05 15:24:50;;;;;;;9.25;6.10;;;8.40;99.90;;;;;;4977684;28;20197;-77
2021/12/05 15:27:20;;;;;;;6.53;5.85;;;8.30;99.90;;;;;;4976903;28;20237;-77
2021/12/05 15:29:52;;;;;;;6.65;6.05;;;8.30;99.90;;;;;;4994447;28;20173;-78
2021/12/05 15:32:21;;;;;;;6.57;5.93;;;8.30;99.90;;;;;;4993934;28;20157;-78
2021/12/05 15:35:14;;;;;;;7.25;6.57;;;8.20;99.90;;;;;;4985418;28;20173;-78
2021/12/05 15:37:53;;;;;;;6.47;5.78;;;8.10;99.90;;;;;;4970514;28;20544;-79
2021/12/05 15:40:20;;;;;;;8.60;5.88;;;8.20;99.90;;;;;;4975401;28;20284;-80
2021/12/05 15:42:46;;;;;;;13.05;8.02;;;8.10;99.90;;;;;;4975523;28;20170;-82
2021/12/05 15:45:15;;;;;;;10.32;8.30;;;8.10;99.90;;;;;;4975212;28;20178;-79
2021/12/05 15:47:45;;;;;;;6.55;5.82;;;8.10;99.90;;;;;;4975052;28;20182;-78
2021/12/05 15:50:22;;;;;;;9.38;5.78;;;8.20;99.90;;;;;;4974928;28;20194;-78
2021/12/05 15:52:51;;;;;;;6.28;5.63;;;8.30;99.90;;;;;;4974740;28;20228;-78
2021/12/05 15:55:32;;;;;;;5.80;5.30;;;8.20;99.90;;;;;;4974468;28;20249;-77
2021/12/05 15:58:09;;;;;;;5.68;4.97;;;7.90;99.90;;;;;;4974734;28;20190;-77
2021/12/05 16:00:41;;;;;;;7.03;6.20;;;7.90;99.90;;;;;;4974242;28;20270;-78
2021/12/05 16:03:16;;;;;;;14.25;5.70;;;7.70;99.90;;;;;;4957494;28;20282;-78
2021/12/05 16:05:55;;;;;;;19.65;9.77;;;7.80;99.90;;;;;;4974794;28;20161;-80
2021/12/05 16:08:21;;;;;;;17.23;8.63;;;8.00;99.90;;;;;;4974341;28;20256;-79
2021/12/05 16:10:50;;;;;;;8.32;6.13;;;8.10;99.90;;;;;;4974611;28;20181;-84
2021/12/05 16:13:25;;;;;;;6.35;5.70;;;8.20;99.90;;;;;;4957513;28;20568;-77
2021/12/05 16:15:54;;;;;;;9.70;5.13;;;8.30;99.90;;;;;;4974113;28;20165;-81
2021/12/05 16:18:29;;;;;;;7.30;4.25;;;8.30;99.90;;;;;;4964990;28;20202;-78
2021/12/05 16:21:01;;;;;;;5.55;5.05;;;8.40;99.90;;;;;;4954213;28;20192;-77
2021/12/05 16:23:30;;;;;;;6.75;6.05;;;8.40;99.90;;;;;;4954107;29;20263;-79
2021/12/05 16:26:16;;;;;;;6.72;6.07;;;8.30;99.90;;;;;;4959316;28;20186;-78
2021/12/05 16:28:54;;;;;;;14.02;5.80;;;8.40;99.90;;;;;;4971918;28;20189;-78
2021/12/05 16:31:26;;;;;;;6.60;5.35;;;8.50;99.90;;;;;;4944150;29;20226;-85
2021/12/05 16:34:03;;;;;;;9.15;6.65;;;8.50;99.90;;;;;;4953744;28;20286;-79
2021/12/05 16:36:36;;;;;;;8.68;6.63;;;8.50;99.90;;;;;;4953940;29;20205;-80
2021/12/05 16:39:32;;;;;;;9.70;6.63;;;8.60;99.90;;;;;;4953932;29;20210;-82
2021/12/05 16:42:03;;;;;;;7.85;7.15;;;8.70;99.90;;;;;;4953483;29;20187;-81
2021/12/05 16:44:34;;;;;;;10.60;7.28;;;8.70;99.90;;;;;;4952429;28;20224;-82
2021/12/05 16:47:12;;;;;;;8.15;7.35;;;8.60;99.90;;;;;;4973848;28;20193;-79
2021/12/05 16:49:50;;;;;;;8.98;7.43;;;8.30;99.90;;;;;;4955917;28;20710;-81
2021/12/05 16:52:20;;;;;;;11.18;8.93;;;8.40;99.90;;;;;;4972844;28;20229;-77
2021/12/05 16:55:09;;;;;;;9.38;8.48;;;8.30;99.90;;;;;;4954315;28;20174;-82
2021/12/05 16:57:43;;;;;;;11.30;7.90;;;8.60;99.90;;;;;;4937173;29;20672;-84
2021/12/05 17:00:38;;;;;;;17.08;8.23;;;8.70;99.90;;;;;;4954926;29;20212;-79
2021/12/05 17:03:07;;;;;;;16.13;8.02;;;8.50;99.90;;;;;;4959686;28;20185;-83
2021/12/05 17:05:42;;;;;;;7.95;7.15;;;8.40;99.90;;;;;;4973111;28;20209;-80
2021/12/05 17:08:24;;;;;;;9.18;7.75;;;8.10;99.90;;;;;;4956538;28;20223;-76
2021/12/05 17:11:05;;;;;;;9.82;7.95;;;8.00;99.90;;;;;;4973515;28;20256;-81
2021/12/05 17:13:38;;;;;;;10.07;8.40;;;8.10;99.90;;;;;;4976159;28;20174;-76
2021/12/05 17:16:08;;;;;;;10.38;8.45;;;8.40;99.90;;;;;;4978149;28;20193;-83
2021/12/05 17:18:36;;;;;;;9.60;8.13;;;8.10;99.90;;;;;;4978806;28;20276;-76
2021/12/05 17:21:18;;;;;;;10.60;9.40;;;7.90;99.90;;;;;;4977488;28;20620;-81
2021/12/05 17:23:54;;;;;;;11.38;9.50;;;8.10;99.90;;;;;;4977027;28;20217;-82
2021/12/05 17:26:25;;;;;;;14.68;9.90;;;8.10;99.90;;;;;;4945030;28;20204;-82
2021/12/05 17:29:13;;;;;;;14.73;9.93;;;8.00;99.90;;;;;;4976989;28;20272;-81
2021/12/05 17:32:12;;;;;;;12.00;9.13;;;8.00;99.90;;;;;;4977526;28;20252;-82
2021/12/05 17:34:43;;;;;;;12.05;9.75;;;8.00;99.90;;;;;;4943791;29;20663;-80
2021/12/05 17:37:24;;;;;;;13.35;10.10;;;8.10;99.90;;;;;;4940559;29;20289;-84
2021/12/05 17:39:50;;;;;;;16.17;9.88;;;8.20;99.90;;;;;;4955811;29;20561;-84
2021/12/05 17:42:17;;;;;;;14.88;11.27;;;8.30;99.90;;;;;;4961113;28;20637;-77
2021/12/05 17:44:45;;;;;;;22.23;10.15;;;8.20;99.90;;;;;;4977466;28;20633;-82
2021/12/05 17:47:12;;;;;;;14.55;10.75;;;8.20;99.90;;;;;;4959434;28;20192;-85
2021/12/05 17:49:41;;;;;;;17.05;11.13;;;8.10;99.90;;;;;;4977775;28;20221;-79
2021/12/05 17:52:08;;;;;;;18.65;11.60;;;7.90;99.90;;;;;;4977958;28;20170;-78
2021/12/05 17:54:41;;;;;;;13.80;10.02;;;8.00;99.90;;;;;;4977137;28;20204;-81
2021/12/05 17:57:16;;;;;;;13.82;11.07;;;8.20;99.90;;;;;;4977353;28;20298;-82
2021/12/05 17:59:59;;;;;;;13.02;10.75;;;8.10;99.90;;;;;;4977266;28;20201;-85
2021/12/05 18:05:05;;;;;;;18.17;11.73;;;8.20;99.90;;;;;;4976994;28;20174;-79
2021/12/05 18:07:31;;;;;;;11.70;10.02;;;8.30;99.90;;;;;;4976372;28;20590;-78
2021/12/05 18:09:57;;;;;;;20.80;11.45;;;8.30;99.90;;;;;;4972802;28;20193;-81
2021/12/05 18:12:32;;;;;;;12.38;10.73;;;8.40;99.90;;;;;;4974452;28;20176;-79
2021/12/05 18:14:59;;;;;;;14.25;11.95;;;8.50;99.90;;;;;;4975694;28;20565;-79
2021/12/05 18:17:25;;;;;;;15.82;10.95;;;8.50;99.90;;;;;;4976257;28;20221;-79
2021/12/05 18:19:51;;;;;;;15.95;11.60;;;8.50;99.90;;;;;;4976141;28;20209;-79
2021/12/05 18:22:17;;;;;;;19.35;12.48;;;8.40;99.90;;;;;;4975802;28;20170;-78
2021/12/05 18:24:44;;;;;;;16.17;12.13;;;8.50;99.90;;;;;;4975171;28;20194;-79
2021/12/05 18:27:11;;;;;;;19.75;13.30;;;8.40;99.90;;;;;;4977595;28;20200;-78
2021/12/05 18:29:37;;;;;;;17.13;12.38;;;8.30;99.90;;;;;;4976049;28;20170;-79
2021/12/05 18:32:03;;;;;;;24.27;12.23;;;8.30;99.90;;;;;;4975523;28;20189;-79
2021/12/05 18:34:31;;;;;;;18.83;13.13;;;8.40;99.90;;;;;;4975602;28;20162;-77
2021/12/05 18:37:00;;;;;;;18.15;12.23;;;8.60;99.90;;;;;;4975481;28;20542;-78
2021/12/05 18:39:31;;;;;;;28.60;12.98;;;8.60;99.90;;;;;;4975731;28;20210;-77
2021/12/05 18:42:02;;;;;;;15.70;11.82;;;8.70;99.90;;;;;;4975332;28;20646;-78
2021/12/05 18:44:30;;;;;;;18.13;12.15;;;8.70;99.90;;;;;;4976229;28;20504;-77
2021/12/05 18:46:57;;;;;;;20.77;12.88;;;8.40;99.90;;;;;;4975924;28;20585;-78
2021/12/05 18:49:25;;;;;;;16.50;12.45;;;8.40;99.90;;;;;;4976133;28;20174;-77
2021/12/05 18:51:51;;;;;;;15.52;12.80;;;8.40;99.90;;;;;;4975490;28;20201;-76
2021/12/05 18:54:17;;;;;;;17.95;13.60;;;8.30;99.90;;;;;;4975908;28;20232;-78
2021/12/05 18:56:43;;;;;;;21.10;15.07;;;8.30;99.90;;;;;;4975973;28;20200;-78